Time;durP1;ratioP1;P1;durP2;ratioP2;P2;SDS_P1;SDS_P2;PMS_P1;PMS_P2;Temp;Humidity;BMP_temperature;BMP_pressure;BME280_temperature;BME280_humidity;BME280_pressure;Samples;Min_cycle;Max_cycle;Signal;HPM_P1;HPM_P2
2023/10/16 00:01:32;;;;;;;0.00;0.00;;;;;;;3.94;67.45;101197.75;4945944;28;20031;-74
2023/10/16 00:03:58;;;;;;;0.00;0.00;;;;;;;3.90;67.81;101196.47;4948942;28;20094;-73
2023/10/16 00:06:26;;;;;;;0.00;0.00;;;;;;;3.91;67.76;101200.00;4935044;28;20383;-75
2023/10/16 00:08:53;;;;;;;0.00;0.00;;;;;;;3.88;67.88;101192.31;4912478;29;20472;-74
2023/10/16 00:11:23;;;;;;;0.00;0.00;;;;;;;3.88;68.12;101206.66;4928784;29;20037;-74
2023/10/16 00:13:50;;;;;;;0.00;0.00;;;;;;;3.83;68.38;101201.03;4923481;29;20085;-74
2023/10/16 00:16:21;;;;;;;0.00;0.00;;;;;;;3.73;68.22;101181.66;4883459;29;20024;-74
2023/10/16 00:18:47;;;;;;;0.00;0.00;;;;;;;3.73;68.63;101192.47;4906693;29;20686;-74
2023/10/16 00:21:13;;;;;;;0.00;0.00;;;;;;;3.67;68.80;101186.81;4913643;29;20030;-74
2023/10/16 00:23:42;;;;;;;0.00;0.00;;;;;;;3.70;68.67;101198.28;4909413;29;20043;-73
2023/10/16 00:26:15;;;;;;;0.00;0.00;;;;;;;3.65;68.88;101193.44;4925671;29;20032;-74
2023/10/16 00:28:44;;;;;;;0.00;0.00;;;;;;;3.46;69.09;101174.25;4914091;29;20076;-74
2023/10/16 00:31:22;;;;;;;0.00;0.00;;;;;;;3.60;69.30;101190.53;4907179;29;20020;-73
2023/10/16 00:33:50;;;;;;;0.00;0.00;;;;;;;3.57;69.67;101197.16;4917920;29;20487;-75
2023/10/16 00:36:16;;;;;;;0.00;0.00;;;;;;;3.56;69.41;101195.50;4893466;29;20038;-75
2023/10/16 00:38:41;;;;;;;0.00;0.00;;;;;;;3.53;69.44;101204.00;4900825;29;20028;-74
2023/10/16 00:43:43;;;;;;;0.00;0.00;;;;;;;3.48;69.53;101198.38;4929705;29;20035;-74
2023/10/16 00:46:14;;;;;;;0.10;0.10;;;;;;;3.40;69.67;101191.28;4890274;29;20046;-74
2023/10/16 00:48:40;;;;;;;0.00;0.00;;;;;;;3.38;69.71;101200.63;4922027;29;20138;-73
2023/10/16 00:51:10;;;;;;;0.00;0.00;;;;;;;3.37;70.48;101204.34;4901604;29;20080;-74
2023/10/16 00:53:38;;;;;;;0.00;0.00;;;;;;;3.37;70.36;101202.47;4896617;29;20027;-74
2023/10/16 00:56:08;;;;;;;0.00;0.00;;;;;;;3.28;70.63;101177.47;4919270;29;20478;-74
2023/10/16 00:58:36;;;;;;;0.10;0.10;;;;;;;3.35;70.98;101184.78;4906517;29;20047;-75
2023/10/16 01:01:14;;;;;;;0.00;0.00;;;;;;;3.37;70.99;101185.41;4912920;29;20024;-75
2023/10/16 01:03:42;;;;;;;0.00;0.00;;;;;;;3.40;71.10;101188.56;4917230;29;20031;-74
2023/10/16 01:06:31;;;;;;;0.00;0.00;;;;;;;3.39;71.10;101183.34;4928091;29;20031;-74
2023/10/16 01:08:59;;;;;;;0.00;0.00;;;;;;;3.36;71.14;101176.47;4906640;29;20268;-74
2023/10/16 01:11:26;;;;;;;0.00;0.00;;;;;;;3.41;71.03;101181.28;4915495;29;20063;-74
2023/10/16 01:13:53;;;;;;;0.00;0.00;;;;;;;3.34;71.40;101175.00;4923136;29;20032;-75
2023/10/16 01:16:20;;;;;;;0.00;0.00;;;;;;;3.37;71.13;101182.72;4920852;29;20107;-75
2023/10/16 01:18:45;;;;;;;0.00;0.00;;;;;;;3.38;71.23;101189.81;4937181;28;20032;-72
2023/10/16 01:21:14;;;;;;;0.00;0.00;;;;;;;3.35;71.07;101177.50;4942458;29;20031;-74
2023/10/16 01:23:40;;;;;;;0.00;0.00;;;;;;;3.34;71.66;101169.59;4923224;29;20098;-74
2023/10/16 01:26:08;;;;;;;0.00;0.00;;;;;;;3.38;71.53;101173.56;4942390;28;20039;-75
2023/10/16 01:28:33;;;;;;;0.10;0.10;;;;;;;3.39;71.54;101167.13;4929221;29;20027;-74
2023/10/16 01:31:00;;;;;;;0.00;0.00;;;;;;;3.40;71.49;101163.38;4928013;29;20549;-74
2023/10/16 01:33:26;;;;;;;0.00;0.00;;;;;;;3.40;71.58;101158.84;4932965;28;20040;-74
2023/10/16 01:35:51;;;;;;;0.00;0.00;;;;;;;3.37;71.79;101152.97;4916849;29;20034;-75
2023/10/16 01:38:18;;;;;;;0.00;0.00;;;;;;;3.31;71.75;101150.06;4908798;29;20495;-74
2023/10/16 01:40:47;;;;;;;0.10;0.10;;;;;;;3.29;72.24;101149.41;4925937;29;20116;-74
2023/10/16 01:43:16;;;;;;;0.00;0.00;;;;;;;3.24;71.86;101138.38;4920753;29;20050;-75
2023/10/16 01:45:49;;;;;;;0.00;0.00;;;;;;;3.24;72.18;101142.91;4942087;28;20036;-75
2023/10/16 01:48:19;;;;;;;0.10;0.10;;;;;;;3.15;72.42;101131.44;4919738;29;20097;-75
2023/10/16 01:50:49;;;;;;;0.00;0.00;;;;;;;3.12;72.14;101131.84;4921259;29;20345;-75
2023/10/16 01:53:20;;;;;;;0.00;0.00;;;;;;;3.11;72.54;101138.25;4918547;29;20058;-74
2023/10/16 01:55:56;;;;;;;0.00;0.00;;;;;;;3.06;72.58;101135.34;4934496;28;20382;-74
2023/10/16 01:58:25;;;;;;;0.00;0.00;;;;;;;2.97;72.33;101132.78;4922973;29;20483;-74
2023/10/16 02:00:54;;;;;;;0.00;0.00;;;;;;;2.95;72.20;101139.44;4917048;29;20038;-74
2023/10/16 02:03:22;;;;;;;0.00;0.00;;;;;;;2.75;73.03;101110.41;4936884;28;20031;-73
2023/10/16 02:05:48;;;;;;;0.00;0.00;;;;;;;2.78;73.20;101112.72;4920330;29;20035;-73
2023/10/16 02:08:14;;;;;;;0.00;0.00;;;;;;;2.79;73.45;101129.78;4926019;29;20125;-74
2023/10/16 02:10:43;;;;;;;0.00;0.00;;;;;;;2.74;73.29;101124.13;4916787;29;20522;-75
2023/10/16 02:13:10;;;;;;;0.10;0.10;;;;;;;2.72;73.47;101128.91;4916044;29;20032;-74
2023/10/16 02:15:36;;;;;;;0.00;0.00;;;;;;;2.71;73.40;101135.31;4922350;29;20028;-74
2023/10/16 02:18:18;;;;;;;0.00;0.00;;;;;;;2.65;73.60;101128.84;4928231;28;20028;-75
2023/10/16 02:20:45;;;;;;;0.00;0.00;;;;;;;2.66;73.52;101124.25;4921604;29;20505;-75
2023/10/16 02:23:11;;;;;;;0.00;0.00;;;;;;;2.61;73.84;101114.91;4924862;29;20505;-74
2023/10/16 02:25:37;;;;;;;0.00;0.00;;;;;;;2.63;73.52;101114.72;4936935;29;20028;-74
2023/10/16 02:28:07;;;;;;;0.00;0.00;;;;;;;2.65;74.29;101106.41;4923836;29;20031;-74
2023/10/16 02:30:36;;;;;;;0.00;0.00;;;;;;;2.62;73.65;101100.34;4911473;29;20016;-75
2023/10/16 02:35:50;;;;;;;0.00;0.00;;;;;;;2.57;74.42;101073.13;4922544;29;20027;-75
2023/10/16 02:38:37;;;;;;;0.00;0.00;;;;;;;2.77;74.24;101097.56;4924268;29;20467;-74
2023/10/16 02:41:03;;;;;;;0.10;0.10;;;;;;;2.83;74.10;101098.63;4934949;28;21009;-74
2023/10/16 02:43:29;;;;;;;0.10;0.10;;;;;;;2.91;74.20;101097.63;4918422;29;20696;-74
2023/10/16 02:45:56;;;;;;;0.00;0.00;;;;;;;2.92;73.80;101086.63;4926456;29;20517;-74
2023/10/16 02:48:23;;;;;;;0.00;0.00;;;;;;;3.02;74.16;101097.06;4926735;29;20055;-74
2023/10/16 02:50:50;;;;;;;0.00;0.00;;;;;;;3.05;73.81;101085.03;4937780;28;21323;-74
2023/10/16 02:53:21;;;;;;;0.00;0.00;;;;;;;3.10;73.78;101090.69;4922314;29;20028;-75
2023/10/16 02:55:49;;;;;;;0.10;0.10;;;;;;;3.09;74.16;101064.69;4927607;29;20032;-74
2023/10/16 02:58:15;;;;;;;0.00;0.00;;;;;;;3.14;73.56;101073.03;4908120;29;20034;-74
2023/10/16 03:00:49;;;;;;;0.00;0.00;;;;;;;3.17;74.37;101064.53;4941343;28;20130;-74
2023/10/16 03:03:17;;;;;;;0.08;0.08;;;;;;;3.11;73.97;101059.91;4934985;28;20027;-74
2023/10/16 03:05:44;;;;;;;0.00;0.00;;;;;;;3.12;73.68;101053.47;4927158;29;20042;-74
2023/10/16 03:08:10;;;;;;;0.00;0.00;;;;;;;3.05;74.26;101039.09;4904323;29;20137;-73
2023/10/16 03:10:36;;;;;;;0.00;0.00;;;;;;;3.10;74.13;101055.53;4908758;29;20039;-74
2023/10/16 03:13:05;;;;;;;0.00;0.00;;;;;;;3.11;73.76;101057.19;4918809;29;20023;-74
2023/10/16 03:15:38;;;;;;;0.00;0.00;;;;;;;3.04;74.28;101054.47;4919898;29;20039;-74
2023/10/16 03:18:05;;;;;;;0.00;0.00;;;;;;;3.04;74.28;101057.19;4931543;28;20533;-74
2023/10/16 03:20:36;;;;;;;0.00;0.00;;;;;;;2.97;74.39;101054.44;4915865;29;20023;-74
2023/10/16 03:23:06;;;;;;;0.00;0.00;;;;;;;2.92;73.98;101053.34;4913977;29;20083;-74
2023/10/16 03:28:11;;;;;;;0.00;0.00;;;;;;;2.91;74.67;101041.72;4921989;29;20031;-74
2023/10/16 03:30:39;;;;;;;0.00;0.00;;;;;;;2.90;75.09;101040.06;4917529;29;20055;-75
2023/10/16 03:33:05;;;;;;;0.00;0.00;;;;;;;2.95;74.68;101037.59;4933760;29;20550;-75
2023/10/16 03:35:31;;;;;;;0.00;0.00;;;;;;;2.94;74.74;101029.69;4921238;29;20027;-75
2023/10/16 03:37:58;;;;;;;0.00;0.00;;;;;;;2.99;74.79;101029.91;4918537;29;20046;-75
2023/10/16 03:40:27;;;;;;;0.00;0.00;;;;;;;2.97;75.06;101027.41;4926489;29;20102;-75
2023/10/16 03:42:56;;;;;;;0.00;0.00;;;;;;;2.99;74.64;101020.97;4922955;29;20443;-74
2023/10/16 03:45:21;;;;;;;0.10;0.10;;;;;;;2.99;74.96;101019.09;4931353;29;20028;-74
2023/10/16 03:47:54;;;;;;;0.00;0.00;;;;;;;2.94;75.31;101006.19;4924109;29;20083;-75
2023/10/16 03:50:24;;;;;;;0.00;0.00;;;;;;;3.07;74.97;101018.13;4924167;29;20039;-75
2023/10/16 03:52:50;;;;;;;0.00;0.00;;;;;;;3.08;74.92;101008.97;4926045;29;20023;-76
2023/10/16 03:55:25;;;;;;;0.00;0.00;;;;;;;3.13;74.68;101011.91;4920581;29;20044;-75
2023/10/16 03:57:58;;;;;;;0.00;0.00;;;;;;;3.08;74.65;100998.16;4909391;29;20483;-74
2023/10/16 04:00:33;;;;;;;0.00;0.00;;;;;;;3.11;74.55;101000.44;4926493;29;20043;-75
2023/10/16 04:03:00;;;;;;;0.00;0.00;;;;;;;3.24;74.83;101003.22;4925958;29;20038;-75
2023/10/16 04:06:09;;;;;;;0.00;0.00;;;;;;;3.25;74.49;101004.84;4917839;29;20039;-74
2023/10/16 04:08:15;;;;;;;0.00;0.00;;;;;;;3.29;74.65;100999.91;4917146;29;20036;-74
2023/10/16 04:10:46;;;;;;;0.05;0.05;;;;;;;3.27;74.64;100989.28;4907693;29;20036;-73
2023/10/16 04:13:14;;;;;;;0.00;0.00;;;;;;;3.34;74.64;101002.81;4910815;29;20032;-74
2023/10/16 04:23:52;;;;;;;0.00;0.00;;;;;;;3.42;74.33;100977.47;4923917;29;20372;-74
2023/10/16 04:26:47;;;;;;;0.00;0.00;;;;;;;3.48;74.12;100977.47;4907668;29;20043;-74
2023/10/16 04:31:55;;;;;;;0.10;0.10;;;;;;;3.67;75.10;100969.59;4924177;29;20039;-74
2023/10/16 04:36:52;;;;;;;0.00;0.00;;;;;;;3.77;74.01;100964.59;4946931;28;20066;-75
2023/10/16 04:44:49;;;;;;;0.00;0.00;;;;;;;3.83;74.23;100957.53;4928580;29;20074;-75
2023/10/16 04:47:17;;;;;;;0.10;0.10;;;;;;;3.82;74.08;100956.69;4908308;29;20091;-75
2023/10/16 04:49:45;;;;;;;0.00;0.00;;;;;;;3.74;74.68;100937.13;4914824;29;20087;-75
2023/10/16 04:52:35;;;;;;;0.00;0.00;;;;;;;3.82;74.46;100945.03;4908998;29;20039;-74
2023/10/16 04:55:02;;;;;;;0.00;0.00;;;;;;;3.90;74.33;100947.53;4940381;29;20126;-76
2023/10/16 05:03:09;;;;;;;0.00;0.00;;;;;;;3.87;74.10;100937.13;4925972;29;20289;-75
2023/10/16 05:05:56;;;;;;;0.00;0.00;;;;;;;3.86;74.91;100940.06;4922138;29;20039;-74
2023/10/16 05:08:34;;;;;;;0.00;0.00;;;;;;;3.91;74.37;100932.13;4910893;28;20102;-75
2023/10/16 05:13:56;;;;;;;0.00;0.00;;;;;;;3.89;74.65;100924.22;4929014;29;20053;-74
2023/10/16 05:16:30;;;;;;;0.00;0.00;;;;;;;3.91;75.05;100921.31;4906737;29;20090;-74
2023/10/16 06:16:17;;;;;;;0.00;0.00;;;;;;;3.38;77.54;100927.53;4921107;29;20067;-77
2023/10/16 06:18:47;;;;;;;0.00;0.00;;;;;;;3.23;77.65;100915.03;4895903;29;20036;-76
2023/10/16 06:21:17;;;;;;;0.00;0.00;;;;;;;3.14;78.27;100921.69;4917962;29;20027;-77
2023/10/16 06:23:49;;;;;;;0.00;0.00;;;;;;;3.13;78.80;100930.81;4924894;29;20070;-77
2023/10/16 06:26:16;;;;;;;0.00;0.00;;;;;;;3.16;79.20;100946.63;4904579;29;20032;-78
2023/10/16 06:28:47;;;;;;;0.10;0.10;;;;;;;3.11;79.51;100938.28;4924950;29;20765;-77
2023/10/16 06:31:25;;;;;;;0.00;0.00;;;;;;;3.03;79.99;100925.78;4910246;29;20035;-76
2023/10/16 06:33:59;;;;;;;0.00;0.00;;;;;;;3.00;80.23;100919.97;4903411;29;20155;-75
2023/10/16 06:36:25;;;;;;;0.00;0.00;;;;;;;3.05;80.22;100934.56;4894501;29;20044;-76
2023/10/16 06:38:53;;;;;;;0.00;0.00;;;;;;;3.06;80.62;100938.06;4923844;29;20033;-76
2023/10/16 06:41:20;;;;;;;0.03;0.03;;;;;;;2.97;81.03;100918.50;4920696;29;20047;-76
2023/10/16 06:43:50;;;;;;;0.00;0.00;;;;;;;2.99;80.75;100921.00;4909244;29;20674;-77
2023/10/16 06:46:23;;;;;;;0.00;0.00;;;;;;;3.10;81.17;100931.22;4905032;29;20130;-77
2023/10/16 06:48:50;;;;;;;0.00;0.00;;;;;;;3.01;80.84;100908.13;4919706;29;20028;-79
2023/10/16 06:51:18;;;;;;;0.00;0.00;;;;;;;3.17;80.76;100915.88;4917753;29;20677;-77
2023/10/16 06:53:47;;;;;;;0.00;0.00;;;;;;;3.05;81.04;100891.31;4910635;29;20032;-77
2023/10/16 06:56:27;;;;;;;0.00;0.00;;;;;;;3.34;80.81;100920.88;4895489;29;20035;-76
2023/10/16 06:58:53;;;;;;;0.00;0.00;;;;;;;3.37;80.62;100915.88;4898098;29;20040;-78
2023/10/16 07:01:19;;;;;;;0.00;0.00;;;;;;;3.56;80.35;100935.84;4905235;29;20024;-77
2023/10/16 07:03:47;;;;;;;0.00;0.00;;;;;;;3.47;80.15;100910.06;4911027;29;20046;-76
2023/10/16 07:06:14;;;;;;;0.00;0.00;;;;;;;3.70;79.97;100925.06;4893005;29;20027;-76
2023/10/16 07:08:41;;;;;;;0.00;0.00;;;;;;;3.88;79.97;100927.94;4908872;29;20040;-77
2023/10/16 07:11:11;;;;;;;0.00;0.00;;;;;;;4.08;79.69;100937.94;4919186;28;20031;-76
2023/10/16 07:13:38;;;;;;;0.00;0.00;;;;;;;4.17;79.35;100926.66;4920882;28;20042;-76
2023/10/16 07:16:07;;;;;;;0.00;0.00;;;;;;;4.32;78.44;100929.16;4922975;28;20031;-77
2023/10/16 07:18:33;;;;;;;0.00;0.00;;;;;;;4.48;78.62;100938.69;4944741;28;20046;-76
2023/10/16 07:21:00;;;;;;;0.00;0.00;;;;;;;4.53;77.92;100924.50;4926409;29;20024;-76
2023/10/16 07:23:34;;;;;;;0.00;0.00;;;;;;;4.69;77.54;100937.56;4923443;28;20500;-77
2023/10/16 07:26:00;;;;;;;0.00;0.00;;;;;;;4.76;78.15;100934.00;4941766;28;20057;-76
2023/10/16 07:28:27;;;;;;;0.00;0.00;;;;;;;4.83;77.79;100929.38;4941228;28;20359;-76
2023/10/16 07:30:59;;;;;;;0.00;0.00;;;;;;;4.97;77.60;100925.56;4928406;29;20019;-77
2023/10/16 07:33:25;;;;;;;0.00;0.00;;;;;;;5.13;77.47;100936.97;4942812;28;20569;-77
2023/10/16 07:35:56;;;;;;;0.00;0.00;;;;;;;5.17;76.57;100913.75;4913357;28;20035;-76
2023/10/16 07:38:25;;;;;;;0.00;0.00;;;;;;;5.33;77.18;100926.81;4940572;28;20026;-77
2023/10/16 07:40:57;;;;;;;0.00;0.00;;;;;;;5.41;76.87;100931.13;4940414;28;20019;-75
2023/10/16 07:43:36;;;;;;;0.00;0.00;;;;;;;5.30;76.64;100892.00;4942024;28;20545;-76
2023/10/16 07:46:26;;;;;;;0.00;0.00;;;;;;;5.58;76.79;100920.59;4925546;28;20121;-77
2023/10/16 07:48:51;;;;;;;0.00;0.00;;;;;;;5.66;76.29;100906.72;4937742;28;20038;-76
2023/10/16 07:51:21;;;;;;;0.00;0.00;;;;;;;5.85;76.58;100909.50;4909386;28;20039;-76
2023/10/16 07:53:50;;;;;;;0.00;0.00;;;;;;;5.95;75.96;100909.81;4929129;28;20019;-76
2023/10/16 07:56:25;;;;;;;0.00;0.00;;;;;;;6.15;75.07;100914.25;4924305;28;20106;-76
2023/10/16 07:59:08;;;;;;;0.00;0.00;;;;;;;6.30;74.25;100912.00;4935575;28;20055;-76
2023/10/16 08:01:57;;;;;;;0.00;0.00;;;;;;;6.51;75.01;100904.47;4943910;28;20118;-77
2023/10/16 08:07:04;;;;;;;0.00;0.00;;;;;;;6.96;73.41;100915.78;4936154;28;20038;-77
2023/10/16 08:09:48;;;;;;;0.00;0.00;;;;;;;7.45;73.42;100917.63;4938327;28;20055;-77
2023/10/16 08:12:34;;;;;;;;;;;;;;;8.23;72.32;100912.13;4928819;28;20042;-76
2023/10/16 08:15:08;;;;;;;0.00;0.00;;;;;;;9.17;69.15;100900.97;4948621;28;20369;-77
2023/10/16 08:17:34;;;;;;;0.10;0.10;;;;;;;9.78;66.44;100889.41;4942645;28;20042;-77
2023/10/16 08:19:59;;;;;;;0.00;0.00;;;;;;;10.06;64.75;100890.38;4949456;28;20398;-77
2023/10/16 08:22:25;;;;;;;0.00;0.00;;;;;;;10.84;63.70;100895.78;4938878;28;20386;-75
2023/10/16 08:25:04;;;;;;;0.00;0.00;;;;;;;12.38;60.48;100888.00;4944692;28;20101;-76
2023/10/16 08:27:52;;;;;;;0.00;0.00;;;;;;;13.42;55.68;100887.25;4944470;28;20027;-77
2023/10/16 08:30:32;;;;;;;0.00;0.00;;;;;;;14.62;54.25;100886.78;4945976;28;20028;-76
2023/10/16 08:33:09;;;;;;;0.00;0.00;;;;;;;16.33;50.02;100889.88;4950279;28;20373;-77
2023/10/16 08:35:38;;;;;;;0.00;0.00;;;;;;;18.03;46.17;100879.13;4930911;29;20040;-76
2023/10/16 08:38:14;;;;;;;0.00;0.00;;;;;;;19.11;43.06;100885.22;4934713;28;20038;-77
2023/10/16 08:40:46;;;;;;;0.00;0.00;;;;;;;19.22;41.70;100885.81;4944257;28;20058;-76
2023/10/16 08:43:17;;;;;;;0.05;0.05;;;;;;;19.07;41.32;100870.34;4926378;29;20086;-76
2023/10/16 08:45:49;;;;;;;0.00;0.00;;;;;;;18.01;42.68;100886.91;4930322;28;20034;-77
2023/10/16 08:48:17;;;;;;;0.00;0.00;;;;;;;16.71;44.09;100884.44;4911151;29;20600;-76
2023/10/16 08:50:52;;;;;;;0.00;0.00;;;;;;;16.14;46.28;100885.09;4917287;29;20031;-76
2023/10/16 08:53:31;;;;;;;0.00;0.00;;;;;;;16.88;44.83;100872.91;4932312;28;20024;-77
2023/10/16 08:56:03;;;;;;;0.00;0.00;;;;;;;16.43;44.13;100870.44;4933284;29;20051;-75
2023/10/16 08:58:38;;;;;;;0.00;0.00;;;;;;;16.51;44.60;100891.84;4937626;28;20117;-74
2023/10/16 09:01:07;;;;;;;0.00;0.00;;;;;;;15.74;44.33;100895.41;4941191;28;20095;-76
2023/10/16 09:03:39;;;;;;;0.00;0.00;;;;;;;14.77;46.05;100878.44;4928692;29;20470;-74
2023/10/16 09:06:05;;;;;;;0.00;0.00;;;;;;;14.14;47.33;100885.25;4944342;28;20027;-74
2023/10/16 09:08:35;;;;;;;0.00;0.00;;;;;;;13.45;48.44;100861.97;4910111;28;20423;-76
2023/10/16 09:11:06;;;;;;;0.00;0.00;;;;;;;13.18;49.13;100851.22;4926798;29;20016;-75
2023/10/16 09:13:39;;;;;;;0.00;0.00;;;;;;;13.21;49.90;100843.22;4926606;29;20028;-76
2023/10/16 09:16:11;;;;;;;0.00;0.00;;;;;;;13.71;49.94;100849.03;4929827;29;20063;-75
2023/10/16 09:18:37;;;;;;;0.00;0.00;;;;;;;14.33;49.02;100865.38;4934533;28;20096;-75
2023/10/16 09:21:13;;;;;;;0.00;0.00;;;;;;;14.42;48.51;100849.94;4918716;29;20063;-76
2023/10/16 09:23:39;;;;;;;0.00;0.00;;;;;;;14.73;47.96;100866.34;4924622;29;20036;-75
2023/10/16 09:26:07;;;;;;;0.00;0.00;;;;;;;14.82;47.68;100875.66;4927467;29;20538;-76
2023/10/16 09:28:33;;;;;;;0.00;0.00;;;;;;;14.99;48.28;100856.00;4923693;29;20036;-75
2023/10/16 09:31:07;;;;;;;0.00;0.00;;;;;;;16.28;46.23;100854.06;4928741;29;20044;-76
2023/10/16 09:33:36;;;;;;;0.00;0.00;;;;;;;17.71;44.17;100847.56;4921008;29;21585;-75
2023/10/16 09:36:29;;;;;;;0.00;0.00;;;;;;;19.17;40.43;100864.53;4920826;29;20035;-76
2023/10/16 09:38:59;;;;;;;0.00;0.00;;;;;;;19.59;40.00;100851.31;4936750;28;20063;-76
2023/10/16 09:43:56;;;;;;;0.00;0.00;;;;;;;23.10;33.24;100858.34;4916260;29;20357;-75
2023/10/16 09:49:13;;;;;;;0.00;0.00;;;;;;;22.52;32.73;100860.03;4923314;29;20084;-76
2023/10/16 09:51:45;;;;;;;0.00;0.00;;;;;;;20.98;34.54;100864.09;4915291;29;20042;-75
2023/10/16 09:54:13;;;;;;;0.00;0.00;;;;;;;20.19;35.85;100840.88;4921358;29;20031;-75
2023/10/16 09:56:44;;;;;;;0.00;0.00;;;;;;;19.74;36.65;100835.41;4914420;29;20514;-75
2023/10/16 09:59:39;;;;;;;0.00;0.00;;;;;;;20.03;36.84;100827.44;4916741;29;20056;-75
2023/10/16 10:02:14;;;;;;;0.00;0.00;;;;;;;21.66;35.39;100834.97;4927760;29;20052;-76
2023/10/16 10:04:44;;;;;;;0.00;0.00;;;;;;;23.31;33.18;100846.34;4911568;29;20102;-75
2023/10/16 10:07:13;;;;;;;0.00;0.00;;;;;;;27.47;27.91;100830.44;4916472;29;20028;-75
2023/10/16 10:09:46;;;;;;;0.00;0.00;;;;;;;30.59;24.11;100828.38;4930499;28;20055;-75
2023/10/16 10:12:28;;;;;;;0.00;0.00;;;;;;;33.89;21.39;100839.94;4933325;29;20125;-74
2023/10/16 10:15:26;;;;;;;0.00;0.00;;;;;;;36.67;17.66;100840.72;4902018;29;20107;-74
2023/10/16 10:17:55;;;;;;;0.00;0.00;;;;;;;37.77;16.04;100837.19;4912530;29;20039;-74
2023/10/16 10:20:26;;;;;;;0.00;0.00;;;;;;;36.34;16.19;100828.34;4908354;29;20032;-75
2023/10/16 10:23:04;;;;;;;0.00;0.00;;;;;;;32.96;18.30;100827.09;4916339;29;20414;-75
2023/10/16 10:25:40;;;;;;;0.00;0.00;;;;;;;30.92;21.12;100820.91;4918301;29;20787;-74
2023/10/16 10:28:28;;;;;;;0.00;0.00;;;;;;;29.63;22.19;100824.38;4919458;29;20038;-74
2023/10/16 10:31:02;;;;;;;0.00;0.00;;;;;;;27.98;23.28;100818.13;4898538;29;20043;-76
2023/10/16 10:33:51;;;;;;;0.00;0.00;;;;;;;26.56;24.87;100804.44;4926141;29;20028;-75
2023/10/16 10:36:53;;;;;;;0.00;0.00;;;;;;;25.70;26.29;100811.56;4914138;29;20020;-76
2023/10/16 10:42:08;;;;;;;0.00;0.00;;;;;;;24.23;28.16;100799.66;4912556;29;20110;-76
2023/10/16 10:44:47;;;;;;;0.00;0.00;;;;;;;23.43;28.85;100803.72;4900329;29;20573;-75
2023/10/16 10:47:33;;;;;;;0.00;0.00;;;;;;;22.67;30.09;100798.13;4898939;29;20038;-75
2023/10/16 10:50:13;;;;;;;0.00;0.00;;;;;;;22.03;31.08;100786.00;4907989;29;20024;-74
2023/10/16 10:52:43;;;;;;;0.00;0.00;;;;;;;21.41;32.34;100774.28;4890718;29;20118;-75
2023/10/16 10:55:18;;;;;;;0.00;0.00;;;;;;;21.08;32.99;100785.97;4919650;29;20099;-75
2023/10/16 10:57:48;;;;;;;0.00;0.00;;;;;;;20.75;33.58;100772.56;4916466;29;20040;-76
2023/10/16 11:00:22;;;;;;;0.00;0.00;;;;;;;20.21;34.25;100783.06;4919857;29;20028;-75
2023/10/16 11:05:30;;;;;;;0.00;0.00;;;;;;;19.57;35.56;100750.16;4913612;29;20087;-75
2023/10/16 11:10:41;;;;;;;0.00;0.00;;;;;;;19.51;36.82;100763.34;4939877;28;20051;-75
2023/10/16 11:13:11;;;;;;;0.00;0.00;;;;;;;19.27;37.14;100750.63;4935665;28;20091;-74
2023/10/16 11:15:44;;;;;;;0.00;0.00;;;;;;;18.50;37.37;100744.19;4927130;29;20042;-75
2023/10/16 11:18:11;;;;;;;0.00;0.00;;;;;;;17.99;38.31;100748.88;4913641;28;20110;-74
2023/10/16 11:20:37;;;;;;;0.00;0.00;;;;;;;17.61;39.00;100752.63;4952711;28;20027;-75
2023/10/16 11:23:12;;;;;;;0.00;0.00;;;;;;;17.38;39.91;100748.06;4921952;28;20126;-75
2023/10/16 11:25:51;;;;;;;0.00;0.00;;;;;;;17.02;39.91;100741.22;4931807;29;20027;-75
2023/10/16 11:28:28;;;;;;;0.00;0.00;;;;;;;16.97;40.93;100762.56;4906147;28;20039;-75
2023/10/16 11:30:56;;;;;;;0.00;0.00;;;;;;;16.85;41.38;100750.03;4947110;28;20019;-75
2023/10/16 11:33:34;;;;;;;0.00;0.00;;;;;;;16.85;41.20;100750.03;4934592;28;21262;-76
2023/10/16 11:36:51;;;;;;;;;;;;;;;;;;;;;
2023/10/16 11:52:59;;;;;;;0.00;0.00;;;;;;;16.64;42.43;100682.44;4855653;29;20077;-75
2023/10/16 11:55:26;;;;;;;0.00;0.00;;;;;;;16.69;42.48;100710.78;4863346;29;20074;-75
2023/10/16 11:57:52;;;;;;;0.00;0.00;;;;;;;16.76;42.86;100704.88;4941063;28;20418;-75
2023/10/16 12:00:18;;;;;;;0.00;0.00;;;;;;;16.96;42.98;100720.31;4930363;28;20041;-75
2023/10/16 12:02:46;;;;;;;0.00;0.00;;;;;;;17.07;42.88;100710.75;4942404;28;20038;-75
2023/10/16 12:05:12;;;;;;;0.00;0.00;;;;;;;17.02;43.17;100718.28;4923499;29;20035;-75
2023/10/16 12:07:43;;;;;;;0.00;0.00;;;;;;;16.90;42.92;100716.81;4925355;28;20442;-75
2023/10/16 12:10:09;;;;;;;0.00;0.00;;;;;;;16.93;42.86;100705.16;4931353;28;20052;-76
2023/10/16 12:12:46;;;;;;;0.00;0.00;;;;;;;16.54;42.50;100651.13;4928436;29;20040;-75
2023/10/16 12:15:12;;;;;;;0.00;0.00;;;;;;;16.74;43.06;100690.56;4939970;28;20036;-75
2023/10/16 12:17:38;;;;;;;0.00;0.00;;;;;;;16.89;42.88;100706.91;4922708;29;20036;-75
2023/10/16 12:20:10;;;;;;;0.00;0.00;;;;;;;16.72;43.01;100688.09;4890499;29;20047;-75
2023/10/16 12:22:39;;;;;;;0.00;0.00;;;;;;;16.75;43.34;100684.72;4923363;29;20028;-75
2023/10/16 12:25:09;;;;;;;0.00;0.00;;;;;;;16.79;43.12;100704.25;4935498;29;20035;-75
2023/10/16 12:27:36;;;;;;;0.00;0.00;;;;;;;16.75;43.60;100706.00;4928469;29;20032;-75
2023/10/16 12:30:03;;;;;;;0.00;0.00;;;;;;;16.61;43.09;100697.66;4947545;28;20051;-75
2023/10/16 12:32:29;;;;;;;0.00;0.00;;;;;;;16.54;43.35;100695.28;4922476;29;20418;-75
2023/10/16 12:34:57;;;;;;;0.00;0.00;;;;;;;16.24;44.14;100671.72;4940006;29;20039;-75
2023/10/16 12:37:25;;;;;;;0.00;0.00;;;;;;;16.05;44.92;100691.03;4921092;29;20491;-76
2023/10/16 12:39:52;;;;;;;0.00;0.00;;;;;;;15.96;44.90;100685.34;4933075;28;20032;-75
2023/10/16 12:42:18;;;;;;;0.00;0.00;;;;;;;16.02;45.24;100683.34;4924656;29;20028;-75
2023/10/16 12:44:44;;;;;;;0.00;0.00;;;;;;;16.01;45.22;100673.41;4922610;29;20478;-74
2023/10/16 12:47:12;;;;;;;0.00;0.00;;;;;;;15.98;45.41;100661.03;4920071;29;20059;-74
2023/10/16 12:49:40;;;;;;;0.00;0.00;;;;;;;15.93;45.46;100654.75;4905131;29;20047;-75
2023/10/16 12:52:05;;;;;;;0.00;0.00;;;;;;;15.79;45.70;100655.50;4927070;29;20366;-74
2023/10/16 12:54:34;;;;;;;0.00;0.00;;;;;;;15.50;46.31;100659.13;4901273;29;20039;-74
2023/10/16 12:56:59;;;;;;;0.00;0.00;;;;;;;15.46;46.46;100668.28;4917885;29;20031;-75
2023/10/16 12:59:27;;;;;;;0.00;0.00;;;;;;;15.27;46.84;100643.41;4915827;29;21697;-75
2023/10/16 13:01:53;;;;;;;0.00;0.00;;;;;;;15.34;46.91;100652.16;4922633;29;20024;-74
2023/10/16 13:04:19;;;;;;;0.00;0.00;;;;;;;15.37;47.33;100648.81;4909341;29;20090;-76
2023/10/16 13:06:45;;;;;;;0.00;0.00;;;;;;;15.66;47.02;100629.44;4928649;29;20987;-74
2023/10/16 13:09:17;;;;;;;0.00;0.00;;;;;;;16.45;46.13;100652.91;4926525;28;20550;-74
2023/10/16 13:11:45;;;;;;;0.00;0.00;;;;;;;16.80;45.32;100639.63;4909228;29;20036;-74
2023/10/16 13:14:15;;;;;;;0.00;0.00;;;;;;;16.70;44.80;100623.25;4926234;29;20186;-75
2023/10/16 13:16:42;;;;;;;0.00;0.00;;;;;;;16.53;45.17;100646.72;4924783;29;20055;-74
2023/10/16 13:19:11;;;;;;;0.00;0.00;;;;;;;16.48;45.55;100637.69;4918386;29;20875;-76
2023/10/16 13:21:41;;;;;;;0.00;0.00;;;;;;;16.69;45.26;100632.63;4914116;29;20020;-75
2023/10/16 13:24:16;;;;;;;0.00;0.00;;;;;;;17.08;44.49;100636.97;4903055;29;20057;-76
2023/10/16 13:26:42;;;;;;;0.00;0.00;;;;;;;17.45;43.83;100637.94;4920027;29;20032;-74
2023/10/16 13:29:10;;;;;;;0.00;0.00;;;;;;;17.50;43.62;100618.44;4922689;29;20123;-75
2023/10/16 13:31:39;;;;;;;0.00;0.00;;;;;;;17.79;43.70;100636.66;4906467;29;20534;-77
2023/10/16 13:34:10;;;;;;;0.00;0.00;;;;;;;17.99;43.16;100634.59;4897453;29;20035;-77
2023/10/16 13:36:37;;;;;;;0.00;0.00;;;;;;;17.87;42.96;100632.34;4897532;29;20040;-76
2023/10/16 13:39:08;;;;;;;0.00;0.00;;;;;;;17.64;43.43;100629.50;4892891;29;20090;-75
2023/10/16 13:41:50;;;;;;;0.00;0.00;;;;;;;17.60;44.05;100631.25;4905819;29;20118;-76
2023/10/16 13:44:17;;;;;;;0.00;0.00;;;;;;;17.56;43.48;100625.50;4918928;29;20090;-76
2023/10/16 13:46:42;;;;;;;0.00;0.00;;;;;;;17.38;43.80;100599.63;4910569;29;20067;-76
2023/10/16 13:49:17;;;;;;;0.00;0.00;;;;;;;17.32;43.90;100594.50;4903343;29;20028;-77
2023/10/16 13:51:43;;;;;;;0.00;0.00;;;;;;;17.49;43.75;100594.69;4911065;29;20036;-76